Yellow Mule RAWS (NWS)

Jump to table bottom
Date/Time Wind Direction Wind Speed knots Wind Gust knots RH % Accumulated Precip Inches Air Temp Fahrenheit
2023-02-06 09:04 NW 16 28 84 0.18 14
2023-02-06 08:04 NW 15 33 86 0.18 14
2023-02-06 07:04 NW 18 35 87 0.18 14
2023-02-06 06:04 NW 18 32 89 0.18 15
2023-02-06 05:04 W 9 18 90 0.18 15
2023-02-06 04:04 WNW 13 21 90 0.18 15
2023-02-06 03:04 W 11 16 90 0.18 15
2023-02-06 02:04 SW 10 17 90 0.18 15
2023-02-06 01:04 SSW 13 23 90 0.18 15
2023-02-06 00:04 SSW 16 23 90 0.18 15
2023-02-05 23:04 SSW 13 17 90 0.18 16
2023-02-05 22:04 SW 9 17 91 0.18 16
2023-02-05 21:04 SSW 15 23 91 0.18 17
2023-02-05 20:04 SSW 16 23 91 0.18 18
2023-02-05 19:04 SSW 10 14 92 0.18 18
2023-02-05 18:04 S 9 15 92 0.18 19
2023-02-05 17:04 SSW 10 18 89 0.18 19
2023-02-05 16:04 SSW 9 17 90 0.18 20
2023-02-05 15:04 S 6 20 85 0.18 22
2023-02-05 14:04 ESE 5 16 87 0.18 22
2023-02-05 13:04 SSE 12 17 82 0.18 22
2023-02-05 12:04 SSE 11 17 79 0.18 22
2023-02-05 11:04 SE 15 21 81 0.18 21
2023-02-05 10:04 SE 9 14 67 0.18 21
2023-02-05 09:04 S 10 13 73 0.18 19
2023-02-05 08:04 SSE 10 14 78 0.18 17
2023-02-05 07:04 SSE 9 12 88 0.18 16
2023-02-05 06:04 SSE 9 12 88 0.18 16
2023-02-05 05:04 SSE 8 11 89 0.18 15
2023-02-05 04:04 SSE 8 10 90 0.18 14
2023-02-05 03:04 SSE 7 11 90 0.18 15
2023-02-05 02:04 SSE 7 11 90 0.18 15
2023-02-05 01:04 SE 8 10 90 0.18 14
2023-02-05 00:04 SSE 8 10 91 0.18 14
2023-02-04 23:04 SSE 8 10 92 0.18 14
2023-02-04 22:04 SSE 7 10 93 0.18 14
2023-02-04 21:04 SSE 5 10 93 0.18 13
2023-02-04 20:04 S 7 18 87 0.18 15
2023-02-04 19:04 SSW 12 16 84 0.18 17
2023-02-04 18:04 S 10 23 72 0.18 19
2023-02-04 17:04 S 15 19 67 0.18 22
2023-02-04 16:04 S 10 19 66 0.18 22
2023-02-04 15:04 S 10 20 65 0.18 23
2023-02-04 14:04 SSW 12 26 62 0.18 23
2023-02-04 13:04 S 12 26 61 0.18 24
2023-02-04 12:04 S 18 30 65 0.18 23
2023-02-04 11:04 SSW 17 24 68 0.18 22
2023-02-04 10:04 S 15 30 68 0.18 22
2023-02-04 09:04 S 12 23 76 0.18 18
2023-02-04 08:04 SSW 11 28 74 0.18 18